Terminal Aerodrome Forecast
Issued by NWS

Home | Current Version | Previous Version | Text Only | Print | Product List | Glossary On
Versions: 1 2 3 4 5 6 7 8 9 10 11 12 13 14 15 16 17
000
FTUS43 KDVN 020100 AAA
TAFBRL
TAF AMD
KBRL 020131Z 0202/0224 17012G20KT P6SM BKN200
      TEMPO 0209/0212 5SM -TSRA BKN040CB
     FM021200 18012KT 4SM SHRA BR OVC015
     FM021600 33012KT P6SM BKN025
     FM021800 33012G20KT P6SM SCT030=

USA.gov is the U.S. government's official web portal to all federal, state and local government web resources and services.